createdAt,value
2022-10-04T00:00:57.744Z,90.05
2022-10-04T00:04:09.754Z,90.44
2022-10-04T00:07:11.296Z,90.69
2022-10-04T00:10:20.691Z,90.51
2022-10-04T00:13:23.922Z,91.12
2022-10-04T00:16:35.114Z,91.21
2022-10-04T00:19:45.246Z,91.83
2022-10-04T00:23:06.777Z,91.66
2022-10-04T00:26:11.085Z,91.89
2022-10-04T00:29:30.632Z,91.52
2022-10-04T00:32:41.328Z,91.73
2022-10-04T00:35:47.198Z,91.94
2022-10-04T00:39:06.835Z,92.03
2022-10-04T00:42:09.291Z,91.86
2022-10-04T00:45:20.489Z,91.28
2022-10-04T00:48:31.375Z,90.09
2022-10-04T00:51:39.531Z,90.02
2022-10-04T00:54:43.489Z,90.65
2022-10-04T00:57:45.591Z,90.87
2022-10-04T01:00:47.539Z,90.90
2022-10-04T01:03:49.881Z,90.98
2022-10-04T01:06:51.435Z,91.34
2022-10-04T01:09:54.013Z,91.69
2022-10-04T01:13:07.638Z,92.26
2022-10-04T01:16:19.641Z,92.91
2022-10-04T01:19:26.482Z,92.80
2022-10-04T01:22:34.177Z,93.10
2022-10-04T01:25:45.984Z,93.21
2022-10-04T01:28:47.490Z,92.85
2022-10-04T01:31:49.819Z,92.85
2022-10-04T01:34:51.397Z,93.19
2022-10-04T01:37:52.889Z,92.82
2022-10-04T01:40:55.153Z,92.42
2022-10-04T01:43:58.285Z,92.73
2022-10-04T01:47:01.609Z,93.18
2022-10-04T01:50:03.958Z,93.72
2022-10-04T01:53:08.499Z,93.94
2022-10-04T01:56:14.436Z,94.10
2022-10-04T01:59:19.153Z,93.87
2022-10-04T02:02:22.131Z,93.22
2022-10-04T02:05:28.370Z,93.66
2022-10-04T02:08:31.181Z,92.72
2022-10-04T02:11:32.798Z,92.43
2022-10-04T02:14:34.309Z,92.46
2022-10-04T02:17:38.256Z,92.30
2022-10-04T02:20:40.201Z,92.96
2022-10-04T02:23:41.865Z,92.92
2022-10-04T02:26:48.613Z,92.68
2022-10-04T02:29:50.145Z,92.88
2022-10-04T02:33:00.416Z,92.92
2022-10-04T02:36:02.057Z,93.05
2022-10-04T02:39:23.821Z,93.43
2022-10-04T02:42:28.412Z,93.26
2022-10-04T02:45:48.681Z,93.65
2022-10-04T02:48:54.815Z,93.93
2022-10-04T02:52:03.846Z,94.01
2022-10-04T02:55:22.493Z,93.41
2022-10-04T02:58:24.418Z,93.57
2022-10-04T03:01:27.692Z,93.79
2022-10-04T03:04:32.826Z,93.77
2022-10-04T03:07:35.034Z,94.00
2022-10-04T03:10:36.557Z,94.14
2022-10-04T03:13:38.857Z,94.48
2022-10-04T03:16:41.354Z,94.36
2022-10-04T03:19:42.920Z,94.20
2022-10-04T03:22:47.031Z,93.67
2022-10-04T03:26:09.173Z,93.75
2022-10-04T03:29:11.635Z,93.80
2022-10-04T03:32:14.005Z,94.16
2022-10-04T03:35:28.663Z,93.90
2022-10-04T03:38:30.233Z,94.00
2022-10-04T03:41:33.185Z,94.18
2022-10-04T03:44:34.942Z,94.34
2022-10-04T03:47:37.553Z,94.37
2022-10-04T03:50:46.965Z,93.99
2022-10-04T03:53:53.412Z,93.64
2022-10-04T03:56:55.540Z,93.93
2022-10-04T03:59:57.537Z,93.67
2022-10-04T04:02:59.886Z,93.46
2022-10-04T04:06:01.433Z,93.36
2022-10-04T04:09:02.982Z,92.85
2022-10-04T04:12:05.351Z,92.87
2022-10-04T04:15:09.198Z,93.10
2022-10-04T04:18:13.775Z,92.93
2022-10-04T04:21:16.549Z,92.70
2022-10-04T04:24:23.102Z,92.48
2022-10-04T04:27:29.033Z,93.14
2022-10-04T04:30:30.810Z,92.76
2022-10-04T04:33:34.509Z,92.75
2022-10-04T04:36:43.087Z,92.50
2022-10-04T04:39:49.132Z,92.55
2022-10-04T04:42:50.689Z,92.26
2022-10-04T04:46:08.561Z,92.44
2022-10-04T04:49:15.248Z,93.29
2022-10-04T04:52:17.943Z,93.92
2022-10-04T04:55:26.593Z,93.81
2022-10-04T04:58:33.279Z,93.91
2022-10-04T05:01:35.632Z,92.93
2022-10-04T05:04:37.189Z,92.84
2022-10-04T05:07:38.684Z,92.82
2022-10-04T05:10:55.204Z,92.92
2022-10-04T05:13:57.033Z,92.38
2022-10-04T05:16:58.531Z,92.33
2022-10-04T05:20:00.703Z,92.61
2022-10-04T05:23:02.190Z,92.36
2022-10-04T05:26:04.277Z,93.03
2022-10-04T05:29:10.346Z,92.81
2022-10-04T05:32:24.181Z,92.36
2022-10-04T05:35:26.393Z,92.96
2022-10-04T05:38:31.954Z,92.61
2022-10-04T05:41:40.086Z,91.37
2022-10-04T05:44:52.044Z,91.06
2022-10-04T05:47:54.352Z,90.87
2022-10-04T05:50:55.865Z,90.79
2022-10-04T05:53:58.292Z,90.93
2022-10-04T05:57:05.904Z,90.58
2022-10-04T06:00:24.215Z,90.73
2022-10-04T06:03:25.771Z,90.57
2022-10-04T06:06:36.153Z,90.22
2022-10-04T06:09:42.875Z,89.94
2022-10-04T06:12:50.460Z,89.80
2022-10-04T06:16:11.713Z,90.13
2022-10-04T06:19:24.118Z,90.26
2022-10-04T06:22:28.554Z,90.24
2022-10-04T06:25:31.983Z,90.49
2022-10-04T06:28:36.756Z,90.62
2022-10-04T06:31:44.942Z,90.85
2022-10-04T06:34:46.663Z,90.76
2022-10-04T06:37:57.227Z,90.70
2022-10-04T06:41:01.609Z,90.83
2022-10-04T06:44:05.861Z,90.47
2022-10-04T06:47:15.897Z,90.84
2022-10-04T06:50:26.642Z,91.37
2022-10-04T06:53:35.217Z,91.40
2022-10-04T06:56:49.098Z,91.28
2022-10-04T06:59:50.955Z,91.90
2022-10-04T07:02:54.106Z,91.41
2022-10-04T07:05:57.790Z,91.59
2022-10-04T07:09:02.517Z,91.15
2022-10-04T07:12:08.436Z,91.20
2022-10-04T07:15:14.662Z,91.16
2022-10-04T07:18:25.901Z,91.63
2022-10-04T07:21:36.679Z,91.55
2022-10-04T07:24:44.238Z,91.29
2022-10-04T07:28:13.494Z,91.41
2022-10-04T07:31:23.122Z,91.38
2022-10-04T07:34:28.166Z,91.18
2022-10-04T07:37:30.053Z,91.05
2022-10-04T07:40:31.698Z,91.15
2022-10-04T07:43:34.343Z,91.26
2022-10-04T07:46:42.114Z,91.18
2022-10-04T07:49:43.666Z,91.08
2022-10-04T07:53:09.192Z,91.21
2022-10-04T07:56:11.845Z,91.40
2022-10-04T07:59:13.449Z,91.33
2022-10-04T08:02:18.235Z,90.87
2022-10-04T08:05:22.037Z,91.16
2022-10-04T08:08:32.790Z,91.15
2022-10-04T08:11:50.116Z,91.39
2022-10-04T08:14:54.436Z,91.37
2022-10-04T08:17:57.514Z,91.54
2022-10-04T08:21:03.855Z,91.70
2022-10-04T08:24:11.590Z,91.93
2022-10-04T08:27:19.110Z,92.22
2022-10-04T08:30:20.717Z,92.23
2022-10-04T08:33:22.979Z,92.85
2022-10-04T08:36:39.569Z,93.07
2022-10-04T08:39:59.947Z,92.22
2022-10-04T08:43:19.799Z,92.71
2022-10-04T08:46:21.440Z,92.60
2022-10-04T08:49:26.272Z,92.17
2022-10-04T08:52:34.058Z,92.33
2022-10-04T08:55:55.368Z,92.35
2022-10-04T08:59:15.808Z,92.03
2022-10-04T09:02:23.463Z,92.00
2022-10-04T09:05:31.154Z,91.94
2022-10-04T09:08:51.678Z,91.78
2022-10-04T09:12:15.361Z,91.88
2022-10-04T09:15:18.901Z,91.38
2022-10-04T09:18:22.434Z,91.73
2022-10-04T09:21:40.656Z,91.88
2022-10-04T09:25:09.176Z,91.63
2022-10-04T09:28:10.861Z,92.06
2022-10-04T09:31:27.920Z,92.13
2022-10-04T09:34:31.699Z,92.73
2022-10-04T09:37:51.733Z,92.78
2022-10-04T09:41:04.090Z,93.25
2022-10-04T09:44:29.230Z,93.66
2022-10-04T09:47:38.008Z,92.90
2022-10-04T09:50:54.769Z,93.47
2022-10-04T09:53:59.193Z,93.23
2022-10-04T09:57:01.349Z,93.90
2022-10-04T10:00:05.506Z,94.78
2022-10-04T10:03:17.575Z,94.65
2022-10-04T10:06:22.846Z,95.34
2022-10-04T10:09:44.553Z,95.70
2022-10-04T10:13:12.438Z,96.76
2022-10-04T10:16:32.687Z,99.77
2022-10-04T10:19:52.872Z,100.00
2022-10-04T10:23:12.657Z,100.00
2022-10-04T10:26:14.433Z,100.00
2022-10-04T10:29:23.257Z,100.00
2022-10-04T10:32:33.971Z,100.00
2022-10-04T10:35:44.156Z,100.00
2022-10-04T10:39:01.058Z,100.00
2022-10-04T10:42:06.395Z,100.00
2022-10-04T10:45:40.755Z,100.00
2022-10-04T10:48:45.397Z,100.00
2022-10-04T10:51:54.165Z,100.00
2022-10-04T10:55:01.952Z,100.00
2022-10-04T10:58:03.609Z,100.00
2022-10-04T11:01:23.628Z,100.00
2022-10-04T11:04:25.213Z,100.00
2022-10-04T11:07:37.285Z,100.00
2022-10-04T11:10:38.797Z,100.00
2022-10-04T11:13:43.222Z,100.00
2022-10-04T11:16:48.105Z,99.27
2022-10-04T11:19:55.005Z,99.19
2022-10-04T11:23:20.628Z,99.09
2022-10-04T11:26:32.929Z,98.85
2022-10-04T11:29:54.761Z,97.87
2022-10-04T11:33:02.593Z,97.37
2022-10-04T11:36:19.043Z,97.03
2022-10-04T11:39:43.756Z,96.29
2022-10-04T11:42:58.082Z,95.87
2022-10-04T11:46:03.815Z,95.62
2022-10-04T11:49:10.825Z,95.72
2022-10-04T11:52:17.612Z,95.92
2022-10-04T11:55:26.134Z,96.03
2022-10-04T11:58:50.678Z,96.18
2022-10-04T12:02:02.806Z,96.50
2022-10-04T12:05:23.442Z,97.12
2022-10-04T12:08:27.864Z,96.83
2022-10-04T12:11:53.772Z,96.69
2022-10-04T12:15:08.494Z,96.41
2022-10-04T12:18:26.483Z,96.74
2022-10-04T12:21:34.816Z,96.50
2022-10-04T12:24:51.393Z,96.67
2022-10-04T12:27:53.013Z,96.59
2022-10-04T12:31:09.641Z,97.21
2022-10-04T12:34:14.845Z,97.96
2022-10-04T12:37:30.954Z,98.24
2022-10-04T12:40:35.294Z,97.70
2022-10-04T12:43:41.034Z,95.71
2022-10-04T12:46:54.818Z,92.86
2022-10-04T12:50:05.419Z,90.08
2022-10-04T12:53:07.031Z,89.53
2022-10-04T12:56:21.915Z,89.97
2022-10-04T12:59:29.550Z,90.21
2022-10-04T13:02:54.694Z,89.17
2022-10-04T13:06:03.078Z,89.86
2022-10-04T13:09:07.769Z,89.21
2022-10-04T13:12:27.523Z,88.37
2022-10-04T13:19:10.869Z,89.61
2022-10-04T13:22:31.862Z,90.95
2022-10-04T13:25:45.776Z,90.82
2022-10-04T13:28:56.582Z,91.50
2022-10-04T13:32:21.166Z,92.47
2022-10-04T13:35:25.529Z,94.26
2022-10-04T13:38:27.787Z,95.00
2022-10-04T13:41:48.161Z,94.60
2022-10-04T13:45:02.594Z,95.12
2022-10-04T13:48:04.142Z,94.84
2022-10-04T13:51:24.542Z,94.83
2022-10-04T13:54:50.679Z,95.73
2022-10-04T13:57:57.942Z,95.24
2022-10-04T14:01:05.583Z,94.84
2022-10-04T14:04:25.227Z,95.23
2022-10-04T14:07:32.549Z,95.40
2022-10-04T14:10:47.492Z,95.40
2022-10-04T14:13:55.634Z,96.21
2022-10-04T14:17:13.678Z,96.54
2022-10-04T14:20:35.461Z,96.44
2022-10-04T14:24:02.789Z,97.05
2022-10-04T14:27:23.033Z,97.22
2022-10-04T14:30:24.730Z,97.15
2022-10-04T14:33:29.469Z,96.50
2022-10-04T14:36:50.746Z,96.60
2022-10-04T14:40:07.345Z,95.79
2022-10-04T14:43:21.068Z,95.61
2022-10-04T14:47:01.831Z,95.08
2022-10-04T14:50:21.807Z,94.42
2022-10-04T14:53:27.652Z,93.73
2022-10-04T14:56:43.959Z,93.69
2022-10-04T14:59:47.363Z,93.62
2022-10-04T15:02:56.400Z,92.95
2022-10-04T15:06:06.513Z,93.52
2022-10-04T15:09:11.113Z,94.05
2022-10-04T15:12:51.900Z,94.28
2022-10-04T15:16:14.280Z,93.85
2022-10-04T15:19:16.535Z,94.75
2022-10-04T15:22:29.634Z,95.19
2022-10-04T15:25:43.197Z,95.49
2022-10-04T15:28:44.725Z,96.36
2022-10-04T15:31:46.216Z,96.88
2022-10-04T15:34:50.542Z,97.71
2022-10-04T15:37:55.054Z,98.58
2022-10-04T15:41:03.427Z,98.48
2022-10-04T15:44:11.759Z,99.28
2022-10-04T15:47:26.104Z,99.76
2022-10-04T15:50:30.709Z,100.00
2022-10-04T15:53:50.458Z,100.00
2022-10-04T15:56:55.809Z,100.00
2022-10-04T15:59:57.335Z,100.00
2022-10-04T16:03:10.775Z,100.00
2022-10-04T16:06:31.207Z,100.00
2022-10-04T16:09:37.451Z,100.00
2022-10-04T16:12:51.885Z,100.00
2022-10-04T16:16:17.609Z,100.00
2022-10-04T16:19:19.291Z,100.00
2022-10-04T16:22:33.590Z,100.00
2022-10-04T16:25:36.867Z,100.00
2022-10-04T16:28:44.646Z,100.00
2022-10-04T16:31:52.454Z,100.00
2022-10-04T16:34:57.269Z,100.00
2022-10-04T16:38:00.532Z,100.00
2022-10-04T16:41:13.363Z,100.00
2022-10-04T16:44:33.678Z,100.00
2022-10-04T16:47:39.536Z,100.00
2022-10-04T16:50:50.935Z,100.00
2022-10-04T16:54:07.811Z,100.00
2022-10-04T16:57:15.203Z,100.00
2022-10-04T17:00:31.949Z,100.00
2022-10-04T17:03:34.433Z,100.00
2022-10-04T17:06:44.069Z,100.00
2022-10-04T17:09:49.936Z,100.00
2022-10-04T17:12:54.163Z,100.00
2022-10-04T17:16:06.749Z,100.00
2022-10-04T17:19:15.394Z,100.00
2022-10-04T17:22:25.885Z,100.00
2022-10-04T17:25:27.943Z,100.00
2022-10-04T17:28:41.803Z,100.00
2022-10-04T17:31:48.938Z,100.00
2022-10-04T17:35:09.973Z,100.00
2022-10-04T17:38:20.747Z,100.00
2022-10-04T17:41:40.929Z,100.00
2022-10-04T17:44:43.101Z,100.00
2022-10-04T17:48:18.382Z,100.00
2022-10-04T17:51:41.644Z,100.00
2022-10-04T17:55:03.483Z,100.00
2022-10-04T17:58:09.689Z,100.00
2022-10-04T18:01:27.726Z,100.00
2022-10-04T18:04:30.544Z,100.00
2022-10-04T18:07:33.650Z,100.00
2022-10-04T18:10:37.147Z,100.00
2022-10-04T18:13:52.197Z,100.00
2022-10-04T18:16:57.375Z,100.00
2022-10-04T18:20:17.733Z,100.00
2022-10-04T18:23:27.325Z,100.00
2022-10-04T18:26:30.216Z,100.00
2022-10-04T18:29:39.236Z,100.00
2022-10-04T18:32:47.302Z,100.00
2022-10-04T18:36:05.174Z,100.00
2022-10-04T18:39:09.529Z,100.00
2022-10-04T18:42:20.382Z,100.00
2022-10-04T18:45:23.668Z,100.00
2022-10-04T18:48:35.837Z,100.00
2022-10-04T18:51:56.290Z,100.00
2022-10-04T18:55:00.558Z,100.00
2022-10-04T18:58:20.555Z,100.00
2022-10-04T19:01:47.249Z,100.00
2022-10-04T19:05:02.075Z,100.00
2022-10-04T19:08:21.784Z,100.00
2022-10-04T19:11:24.474Z,100.00
2022-10-04T19:14:26.082Z,100.00
2022-10-04T19:17:36.293Z,100.00
2022-10-04T19:20:37.954Z,100.00
2022-10-04T19:23:51.553Z,100.00
2022-10-04T19:27:19.346Z,100.00
2022-10-04T19:30:28.559Z,100.00
2022-10-04T19:33:50.016Z,100.00
2022-10-04T19:37:01.864Z,100.00
2022-10-04T19:40:04.153Z,100.00
2022-10-04T19:43:16.894Z,100.00
2022-10-04T19:46:18.504Z,100.00
2022-10-04T19:49:23.417Z,100.00
2022-10-04T19:52:28.024Z,100.00
2022-10-04T19:55:32.137Z,100.00
2022-10-04T19:58:40.922Z,100.00
2022-10-04T20:01:42.636Z,100.00
2022-10-04T20:04:48.769Z,100.00
2022-10-04T20:07:51.530Z,100.00
2022-10-04T20:10:53.093Z,100.00
2022-10-04T20:14:10.207Z,100.00
2022-10-04T20:17:11.822Z,100.00
2022-10-04T20:20:14.583Z,100.00
2022-10-04T20:23:17.475Z,100.00
2022-10-04T20:26:55.400Z,100.00
2022-10-04T20:29:59.013Z,100.00
2022-10-04T20:33:01.952Z,100.00
2022-10-04T20:36:10.465Z,100.00
2022-10-04T20:39:31.988Z,100.00
2022-10-04T20:42:37.291Z,100.00
2022-10-04T20:45:51.794Z,100.00
2022-10-04T20:48:54.170Z,100.00
2022-10-04T20:51:55.719Z,100.00
2022-10-04T20:54:59.027Z,100.00
2022-10-04T20:58:01.692Z,100.00
2022-10-04T21:01:36.822Z,100.00
2022-10-04T21:04:50.382Z,100.00
2022-10-04T21:08:10.375Z,100.00
2022-10-04T21:11:19.362Z,100.00
2022-10-04T21:14:25.560Z,100.00
2022-10-04T21:17:30.116Z,100.00
2022-10-04T21:20:50.327Z,100.00
2022-10-04T21:23:51.910Z,100.00
2022-10-04T21:26:57.182Z,100.00
2022-10-04T21:29:59.061Z,100.00
2022-10-04T21:33:00.577Z,100.00
2022-10-04T21:36:02.518Z,100.00
2022-10-04T21:39:04.158Z,100.00
2022-10-04T21:42:05.723Z,100.00
2022-10-04T21:45:07.543Z,100.00
2022-10-04T21:48:09.104Z,100.00
2022-10-04T21:51:10.694Z,100.00
2022-10-04T21:54:12.255Z,100.00
2022-10-04T21:57:13.883Z,100.00
2022-10-04T22:00:15.475Z,100.00
2022-10-04T22:03:17.027Z,100.00
2022-10-04T22:06:18.566Z,100.00
2022-10-04T22:09:20.095Z,100.00
2022-10-04T22:12:21.652Z,100.00
2022-10-04T22:15:24.219Z,100.00
2022-10-04T22:18:25.784Z,100.00
2022-10-04T22:21:27.374Z,100.00
2022-10-04T22:24:29.078Z,100.00
2022-10-04T22:27:30.672Z,100.00
2022-10-04T22:30:32.288Z,100.00
2022-10-04T22:33:40.873Z,100.00
2022-10-04T22:36:42.407Z,100.00
2022-10-04T22:39:43.958Z,100.00
2022-10-04T22:42:45.690Z,100.00
2022-10-04T22:45:47.402Z,100.00
2022-10-04T22:48:49.193Z,100.00
2022-10-04T22:51:51.308Z,100.00
2022-10-04T22:54:53.590Z,100.00
2022-10-04T22:57:55.143Z,100.00
2022-10-04T23:00:56.628Z,100.00
2022-10-04T23:03:58.151Z,100.00
2022-10-04T23:06:59.665Z,100.00
2022-10-04T23:10:01.200Z,100.00
2022-10-04T23:13:02.802Z,100.00
2022-10-04T23:16:14.324Z,100.00
2022-10-04T23:19:18.697Z,100.00
2022-10-04T23:22:21.006Z,100.00
2022-10-04T23:25:22.522Z,100.00
2022-10-04T23:28:24.078Z,100.00
2022-10-04T23:31:26.446Z,100.00
2022-10-04T23:34:29.238Z,100.00
2022-10-04T23:37:31.178Z,100.00
2022-10-04T23:40:32.754Z,100.00
2022-10-04T23:43:34.254Z,100.00
2022-10-04T23:46:35.729Z,100.00
2022-10-04T23:49:37.349Z,100.00
2022-10-04T23:52:39.005Z,100.00
2022-10-04T23:55:42.094Z,100.00
2022-10-04T23:58:43.634Z,100.00
